Time;durP1;ratioP1;P1;durP2;ratioP2;P2;SDS_P1;SDS_P2;PMS_P1;PMS_P2;Temp;Humidity;BMP_temperature;BMP_pressure;BME280_temperature;BME280_humidity;BME280_pressure;Samples;Min_cycle;Max_cycle;Signal;HPM_P1;HPM_P2
2023/05/19 00:00:14;;;;;;;;;;;;;;;11.44;88.96;100240.16;4843811;29;20046;-63
2023/05/19 00:02:44;;;;;;;0.45;0.45;;;;;;;11.43;89.04;100248.66;4842933;29;19940;-62
2023/05/19 00:05:17;;;;;;;0.32;0.32;;;;;;;11.44;89.13;100241.00;4843361;29;20053;-63
2023/05/19 00:07:47;;;;;;;1.30;1.02;;;;;;;11.44;89.17;100237.59;4843452;29;20454;-62
2023/05/19 00:10:18;;;;;;;0.20;0.20;;;;;;;11.45;89.46;100236.75;4842972;29;20053;-63
2023/05/19 00:12:48;;;;;;;0.60;0.60;;;;;;;11.39;89.38;100234.16;4842965;29;20504;-63
2023/05/19 00:15:18;;;;;;;0.50;0.50;;;;;;;11.35;89.45;100225.63;4843086;29;20508;-63
2023/05/19 00:17:47;;;;;;;0.60;0.60;;;;;;;11.36;89.56;100234.16;4843305;29;20164;-63
2023/05/19 00:20:18;;;;;;;0.43;0.43;;;;;;;11.37;89.50;100235.88;4842925;29;20067;-63
2023/05/19 00:22:47;;;;;;;0.50;0.50;;;;;;;11.24;89.46;100234.94;4842908;29;20049;-63
2023/05/19 00:25:15;;;;;;;0.40;0.40;;;;;;;11.23;89.69;100233.22;4842890;29;20050;-63
2023/05/19 00:27:44;;;;;;;0.95;0.80;;;;;;;11.10;89.93;100221.25;4842918;29;20038;-63
2023/05/19 00:30:14;;;;;;;0.57;0.57;;;;;;;11.24;90.11;100229.84;4842761;29;20382;-63
2023/05/19 00:32:42;;;;;;;;;;;;;;;11.25;90.32;100226.41;4843445;29;20572;-63
2023/05/19 00:35:12;;;;;;;0.28;0.28;;;;;;;11.25;90.43;100221.31;4841872;29;19932;-63
2023/05/19 00:37:42;;;;;;;0.50;0.50;;;;;;;11.28;90.55;100225.56;4842841;29;20068;-63
2023/05/19 00:40:11;;;;;;;0.60;0.60;;;;;;;11.27;90.44;100229.00;4841887;29;20058;-63
2023/05/19 00:42:41;;;;;;;0.60;0.60;;;;;;;11.28;90.64;100225.56;4842703;29;20057;-63
2023/05/19 00:45:10;;;;;;;1.92;1.08;;;;;;;11.21;90.11;100218.72;4842772;29;20413;-63
2023/05/19 00:47:39;;;;;;;2.63;1.30;;;;;;;11.25;90.69;100228.13;4841599;29;20038;-63
2023/05/19 00:50:09;;;;;;;0.38;0.38;;;;;;;11.21;90.79;100221.28;4842568;29;20133;-63
2023/05/19 00:52:38;;;;;;;;;;;;;;;11.23;90.92;100214.47;4843092;29;20125;-63
2023/05/19 00:55:09;;;;;;;0.50;0.50;;;;;;;11.18;90.82;100218.72;4842821;29;20380;-63
2023/05/19 00:57:39;;;;;;;0.68;0.68;;;;;;;11.19;90.98;100216.19;4841531;29;20068;-63
2023/05/19 01:00:10;;;;;;;0.70;0.70;;;;;;;11.18;90.80;100213.63;4841402;29;20081;-63
2023/05/19 01:02:39;;;;;;;0.43;0.43;;;;;;;11.18;90.76;100219.56;4842334;29;20145;-63
2023/05/19 01:05:09;;;;;;;0.40;0.40;;;;;;;11.17;90.48;100211.91;4842443;29;20057;-63
2023/05/19 01:07:38;;;;;;;;;;;;;;;11.19;90.81;100210.22;4843609;29;20054;-63
2023/05/19 01:10:09;;;;;;;0.40;0.40;;;;;;;11.15;90.93;100203.38;4846494;29;20291;-63
2023/05/19 01:12:39;;;;;;;1.25;1.15;;;;;;;11.17;90.80;100206.78;4844926;29;20050;-63
2023/05/19 01:15:09;;;;;;;0.30;0.30;;;;;;;11.07;90.94;100190.56;4846013;29;20061;-63
2023/05/19 01:17:45;;;;;;;0.55;0.55;;;;;;;11.16;90.98;100210.19;4844751;29;20049;-63
2023/05/19 01:20:20;;;;;;;0.55;0.55;;;;;;;11.16;90.95;100205.06;4845944;29;20049;-62
2023/05/19 01:23:13;;;;;;;0.40;0.40;;;;;;;11.19;90.70;100210.22;4845302;29;20138;-62
2023/05/19 01:26:08;;;;;;;1.45;0.82;;;;;;;11.20;91.11;100191.50;4845986;29;20058;-63
2023/05/19 01:28:59;;;;;;;0.30;0.30;;;;;;;11.21;91.05;100200.84;4845645;29;20073;-63
2023/05/19 01:31:31;;;;;;;0.40;0.40;;;;;;;11.19;90.69;100205.09;4844569;29;20104;-62
2023/05/19 01:34:03;;;;;;;0.57;0.57;;;;;;;11.23;90.85;100196.59;4845659;29;20058;-63
2023/05/19 01:36:33;;;;;;;0.60;0.60;;;;;;;11.23;90.76;100201.69;4844397;29;20145;-63
2023/05/19 01:39:03;;;;;;;1.33;1.23;;;;;;;11.28;90.75;100202.56;4845705;29;20053;-63
2023/05/19 01:41:33;;;;;;;0.40;0.40;;;;;;;11.29;90.70;100207.72;4844355;29;20049;-63
2023/05/19 01:44:02;;;;;;;0.50;0.50;;;;;;;11.27;90.44;100203.44;4844326;29;20064;-62
2023/05/19 01:46:33;;;;;;;1.10;0.98;;;;;;;11.27;90.41;100195.78;4845752;29;20132;-63
2023/05/19 01:49:02;;;;;;;0.77;0.77;;;;;;;11.25;90.42;100200.84;4845717;29;20084;-63
2023/05/19 01:51:31;;;;;;;0.30;0.30;;;;;;;11.25;90.57;100205.16;4845209;29;20045;-63
2023/05/19 01:54:00;;;;;;;0.40;0.40;;;;;;;11.25;90.51;100200.03;4845290;29;20073;-63
2023/05/19 01:56:41;;;;;;;0.93;0.87;;;;;;;11.27;90.26;100206.88;4845212;29;20050;-62
2023/05/19 01:59:24;;;;;;;0.60;0.60;;;;;;;11.28;90.36;100208.56;4845220;29;20110;-63
2023/05/19 02:02:01;;;;;;;0.73;0.73;;;;;;;11.26;90.42;100206.84;4845183;29;20054;-62
2023/05/19 02:04:39;;;;;;;0.50;0.50;;;;;;;11.28;90.42;100210.25;4843756;29;20149;-62
2023/05/19 02:07:15;;;;;;;0.55;0.55;;;;;;;11.25;90.51;100207.69;4843866;29;20054;-63
2023/05/19 02:09:54;;;;;;;0.85;0.75;;;;;;;11.30;90.42;100206.03;4845346;29;20054;-62
2023/05/19 02:12:28;;;;;;;0.55;0.55;;;;;;;11.31;90.46;100210.28;4845213;29;20549;-63
2023/05/19 02:15:04;;;;;;;0.40;0.40;;;;;;;11.29;90.42;100206.84;4874601;29;20054;-63
2023/05/19 02:17:40;;;;;;;0.82;0.82;;;;;;;11.31;90.17;100200.03;4843740;29;20054;-62
2023/05/19 02:20:11;;;;;;;0.52;0.52;;;;;;;11.34;90.37;100205.19;4845188;29;20083;-62
2023/05/19 02:22:39;;;;;;;;;;;;;;;11.35;89.85;100199.19;4845472;29;20066;-63
2023/05/19 02:25:09;;;;;;;0.35;0.35;;;;;;;11.34;90.28;100194.97;4845009;29;19930;-62
2023/05/19 02:27:39;;;;;;;0.77;0.70;;;;;;;11.34;90.07;100200.06;4844940;29;20057;-63
2023/05/19 02:30:09;;;;;;;1.95;0.95;;;;;;;11.32;90.19;100197.53;4844672;29;20057;-63
2023/05/19 02:32:39;;;;;;;1.05;0.95;;;;;;;11.29;90.06;100192.38;4844741;29;20061;-62
2023/05/19 02:35:10;;;;;;;0.77;0.57;;;;;;;11.29;90.04;100191.53;4844906;29;20067;-62
2023/05/19 02:37:40;;;;;;;1.25;1.15;;;;;;;11.28;90.00;100192.34;4844449;29;20057;-62
2023/05/19 02:40:10;;;;;;;0.50;0.50;;;;;;;11.29;90.06;100186.41;4844753;29;20060;-62
2023/05/19 02:42:38;;;;;;;0.80;0.60;;;;;;;11.31;89.85;100189.81;4844475;29;20075;-62
2023/05/19 02:45:08;;;;;;;0.60;0.60;;;;;;;11.32;89.75;100194.09;4843293;29;20038;-62
2023/05/19 02:47:42;;;;;;;0.93;0.85;;;;;;;11.28;89.68;100179.59;4844379;29;20377;-63
2023/05/19 02:50:11;;;;;;;0.50;0.50;;;;;;;11.25;89.69;100179.59;4843450;29;20144;-62
2023/05/19 02:52:40;;;;;;;0.57;0.57;;;;;;;11.24;89.77;100188.09;4843415;29;20042;-63
2023/05/19 02:55:15;;;;;;;1.10;0.68;;;;;;;11.23;89.73;100181.25;4843131;29;20501;-63
2023/05/19 02:57:44;;;;;;;0.40;0.40;;;;;;;11.15;89.46;100173.59;4844151;29;20060;-63
2023/05/19 03:00:14;;;;;;;0.55;0.55;;;;;;;11.23;89.87;100183.81;4844382;29;20524;-63
2023/05/19 03:02:46;;;;;;;0.77;0.77;;;;;;;11.19;89.69;100164.22;4843972;29;20050;-64
2023/05/19 03:05:15;;;;;;;0.40;0.40;;;;;;;11.23;89.53;100176.16;4842966;29;20050;-63
2023/05/19 03:07:44;;;;;;;0.95;0.82;;;;;;;11.06;89.33;100153.06;4842787;29;20073;-63
2023/05/19 03:10:13;;;;;;;0.43;0.43;;;;;;;11.23;89.16;100187.22;4844301;29;20080;-62
2023/05/19 03:12:43;;;;;;;0.68;0.68;;;;;;;11.26;89.50;100187.25;4873698;29;20445;-62
2023/05/19 03:15:13;;;;;;;0.50;0.50;;;;;;;11.32;89.45;100192.41;4873811;29;20485;-62
2023/05/19 03:17:42;;;;;;;0.63;0.60;;;;;;;11.37;89.43;100190.69;4843835;29;20357;-62
2023/05/19 03:20:15;;;;;;;2.47;0.88;;;;;;;11.36;88.99;100193.25;4842613;29;20050;-62
2023/05/19 03:22:44;;;;;;;1.98;1.55;;;;;;;11.34;89.01;100189.84;4842649;29;20054;-62
2023/05/19 03:25:13;;;;;;;0.90;0.85;;;;;;;11.38;88.85;100191.56;4842871;29;20464;-62
2023/05/19 03:27:42;;;;;;;0.70;0.70;;;;;;;11.35;88.84;100201.75;4843639;29;20038;-63
2023/05/19 03:30:13;;;;;;;0.73;0.73;;;;;;;11.31;88.65;100203.47;4843540;29;20135;-62
2023/05/19 03:33:00;;;;;;;0.82;0.82;;;;;;;11.32;88.60;100200.06;4843479;29;20057;-63
2023/05/19 03:35:31;;;;;;;0.60;0.60;;;;;;;11.35;88.42;100210.28;4842472;29;20057;-62
2023/05/19 03:38:00;;;;;;;0.43;0.43;;;;;;;11.38;88.44;100206.88;4843663;29;20046;-62
2023/05/19 03:40:29;;;;;;;;;;;;;;;11.36;88.33;100200.94;4843999;29;20136;-62
2023/05/19 03:43:04;;;;;;;0.40;0.40;;;;;;;11.33;88.07;100213.69;4843473;29;19929;-62
2023/05/19 03:45:39;;;;;;;0.80;0.80;;;;;;;11.32;88.30;100199.22;4842215;29;20080;-62
2023/05/19 03:48:28;;;;;;;0.57;0.57;;;;;;;11.28;88.25;100208.56;4843271;29;20050;-62
2023/05/19 03:51:09;;;;;;;0.50;0.50;;;;;;;11.30;88.47;100216.25;4843421;29;20462;-62
2023/05/19 03:53:40;;;;;;;0.47;0.47;;;;;;;11.31;88.47;100212.81;4843345;29;20045;-62
2023/05/19 03:56:12;;;;;;;1.13;0.98;;;;;;;11.30;88.46;100218.81;4842343;29;20152;-62
2023/05/19 03:58:43;;;;;;;3.00;1.15;;;;;;;11.33;88.40;100218.78;4843582;29;20488;-62
2023/05/19 04:01:12;;;;;;;0.60;0.60;;;;;;;11.29;88.32;100209.41;4843129;29;20065;-62
2023/05/19 04:03:41;;;;;;;0.83;0.83;;;;;;;11.33;88.60;100213.69;4841814;29;20070;-62
2023/05/19 04:06:12;;;;;;;0.50;0.50;;;;;;;11.35;88.63;100211.97;4843038;29;20306;-62
2023/05/19 04:08:43;;;;;;;1.05;0.95;;;;;;;11.38;88.64;100212.00;4841911;29;20114;-62
2023/05/19 04:11:13;;;;;;;0.68;0.68;;;;;;;11.42;88.62;100223.97;4843024;29;20054;-62
2023/05/19 04:13:42;;;;;;;4.18;2.83;;;;;;;11.48;88.56;100223.13;4841888;29;20045;-62
2023/05/19 04:16:13;;;;;;;3.40;2.45;;;;;;;11.43;88.57;100216.28;4842190;29;20050;-62
2023/05/19 04:18:44;;;;;;;0.50;0.50;;;;;;;11.39;88.72;100218.84;4842882;29;20046;-62
2023/05/19 04:21:14;;;;;;;0.45;0.45;;;;;;;11.36;88.79;100218.81;4843273;29;20062;-62
2023/05/19 04:23:43;;;;;;;0.63;0.57;;;;;;;11.35;88.84;100217.09;4842966;29;20054;-62
2023/05/19 04:26:13;;;;;;;0.87;0.80;;;;;;;11.37;88.95;100215.44;4842051;29;20046;-62
2023/05/19 04:28:43;;;;;;;1.08;1.00;;;;;;;11.36;89.13;100218.81;4841787;29;20070;-63
2023/05/19 04:31:13;;;;;;;0.68;0.68;;;;;;;11.32;88.82;100212.00;4841621;29;20121;-66
2023/05/19 04:33:43;;;;;;;1.48;0.75;;;;;;;11.36;89.38;100218.81;4842064;29;20050;-63
2023/05/19 04:36:12;;;;;;;0.60;0.60;;;;;;;11.38;89.14;100222.22;4841638;29;20038;-62
2023/05/19 04:38:45;;;;;;;0.68;0.65;;;;;;;11.38;89.02;100217.13;4841582;29;20050;-62
2023/05/19 04:41:16;;;;;;;4.28;1.63;;;;;;;11.38;88.95;100227.34;4841735;29;20501;-62
2023/05/19 04:43:47;;;;;;;0.55;0.55;;;;;;;11.35;89.07;100215.41;4844068;29;20441;-63
2023/05/19 04:46:16;;;;;;;0.68;0.68;;;;;;;11.38;89.26;100222.22;4845347;29;20060;-63
2023/05/19 04:48:46;;;;;;;0.30;0.30;;;;;;;11.28;89.01;100213.66;4846683;29;20050;-62
2023/05/19 04:51:16;;;;;;;0.60;0.60;;;;;;;11.37;89.12;100221.38;4846396;29;20050;-62
2023/05/19 04:53:47;;;;;;;0.57;0.57;;;;;;;11.35;89.01;100217.09;4845141;29;20162;-62
2023/05/19 04:56:15;;;;;;;3.40;1.50;;;;;;;11.40;89.13;100220.53;4845160;29;20061;-62
2023/05/19 04:58:45;;;;;;;0.30;0.30;;;;;;;11.42;88.96;100223.97;4845142;29;20096;-62
2023/05/19 05:01:15;;;;;;;0.40;0.40;;;;;;;11.41;89.02;100222.25;4846211;29;20687;-62
2023/05/19 05:03:44;;;;;;;;;;;;;;;11.43;89.15;100221.41;4844747;29;20062;-62
2023/05/19 05:06:13;;;;;;;0.40;0.40;;;;;;;11.44;89.06;100223.09;4845216;29;20288;-63
2023/05/19 05:08:42;;;;;;;2.28;0.98;;;;;;;11.44;89.02;100224.81;4843761;29;20409;-62
2023/05/19 05:11:14;;;;;;;0.50;0.50;;;;;;;11.39;88.78;100213.72;4843753;29;20046;-62
2023/05/19 05:13:43;;;;;;;1.52;1.42;;;;;;;11.47;88.31;100232.47;4843689;29;20050;-62
2023/05/19 05:16:14;;;;;;;0.80;0.80;;;;;;;11.47;88.68;100237.59;4844824;29;20137;-62
2023/05/19 05:18:45;;;;;;;2.08;1.48;;;;;;;11.47;88.55;100237.59;4874592;29;20046;-63
2023/05/19 05:21:15;;;;;;;1.10;1.05;;;;;;;11.49;88.47;100246.16;4843875;29;20073;-62
2023/05/19 05:23:44;;;;;;;0.40;0.40;;;;;;;11.52;88.35;100241.03;4843604;29;20038;-62
2023/05/19 05:26:18;;;;;;;;;;;;;;;11.58;88.45;100251.31;4843925;29;20110;-62
2023/05/19 05:28:50;;;;;;;0.63;0.63;;;;;;;11.62;88.31;100258.13;4874590;29;19924;-62
2023/05/19 05:31:19;;;;;;;0.60;0.60;;;;;;;11.66;88.27;100252.16;4843709;29;20125;-62
2023/05/19 05:33:49;;;;;;;2.60;2.40;;;;;;;11.69;88.33;100259.88;4843425;29;20404;-62
2023/05/19 05:36:22;;;;;;;9.98;1.77;;;;;;;11.71;87.90;100258.19;4844825;29;20100;-62
2023/05/19 05:38:51;;;;;;;0.80;0.68;;;;;;;11.76;88.32;100260.75;4843318;29;20095;-63
2023/05/19 05:41:21;;;;;;;0.52;0.52;;;;;;;11.74;88.23;100258.22;4843581;29;20488;-62
2023/05/19 05:43:52;;;;;;;1.33;0.75;;;;;;;11.79;88.41;100266.75;4844671;29;20054;-62
2023/05/19 05:46:22;;;;;;;0.88;0.88;;;;;;;11.72;88.25;100257.34;4844330;29;20125;-62
2023/05/19 05:48:51;;;;;;;0.70;0.70;;;;;;;11.73;88.03;100253.97;4844596;29;20053;-62
2023/05/19 05:51:21;;;;;;;0.43;0.43;;;;;;;11.81;87.96;100275.28;4874220;29;20062;-62
2023/05/19 05:53:53;;;;;;;1.92;0.90;;;;;;;11.82;87.94;100281.25;4842653;29;20054;-62
2023/05/19 05:56:29;;;;;;;1.95;1.30;;;;;;;11.87;87.76;100275.31;4844303;29;20092;-63
2023/05/19 05:58:58;;;;;;;0.50;0.50;;;;;;;11.87;87.53;100279.56;4844529;29;20058;-63
2023/05/19 06:01:27;;;;;;;0.30;0.30;;;;;;;11.94;87.58;100286.41;4843367;29;20133;-62
2023/05/19 06:05:36;;;;;;;0.47;0.47;;;;;;;11.85;87.28;100277.00;5146675;27;1382763;-62
2023/05/19 06:08:05;;;;;;;0.40;0.40;;;;;;;11.99;87.41;100293.28;5173433;27;20560;-62
2023/05/19 06:10:34;;;;;;;0.70;0.70;;;;;;;11.98;87.58;100299.22;5173603;27;20039;-62
2023/05/19 06:13:07;;;;;;;10.35;1.35;;;;;;;11.95;87.09;100294.09;5173342;27;20070;-63
2023/05/19 06:15:38;;;;;;;0.90;0.80;;;;;;;12.03;87.22;100300.09;5173572;27;20064;-62
2023/05/19 06:18:17;;;;;;;;;;;;;;;12.02;86.97;100306.06;5173975;27;20080;-62
2023/05/19 06:20:50;;;;;;;1.40;1.17;;;;;;;12.06;87.00;100302.69;5173567;27;20325;-62
2023/05/19 06:23:20;;;;;;;0.95;0.93;;;;;;;12.07;86.93;100306.91;5173414;27;20050;-62
2023/05/19 06:25:49;;;;;;;1.10;0.90;;;;;;;12.10;87.04;100301.81;5173109;27;20046;-62
2023/05/19 06:28:18;;;;;;;2.75;1.30;;;;;;;12.09;86.73;100302.66;5154482;27;20049;-62
2023/05/19 06:30:47;;;;;;;1.48;1.20;;;;;;;12.17;86.35;100312.06;5172701;27;20035;-63
2023/05/19 06:33:23;;;;;;;2.13;1.83;;;;;;;12.08;86.32;100300.09;5154507;27;20499;-62
2023/05/19 06:35:57;;;;;;;1.08;0.82;;;;;;;12.16;86.46;100318.06;5154540;27;20034;-63
2023/05/19 06:38:26;;;;;;;0.80;0.80;;;;;;;12.20;86.34;100319.75;5172863;27;20047;-62
2023/05/19 06:40:56;;;;;;;0.60;0.60;;;;;;;12.22;86.20;100310.38;5172908;27;20131;-63
2023/05/19 06:43:25;;;;;;;0.63;0.63;;;;;;;12.26;86.00;100324.91;5153790;27;20031;-62
2023/05/19 06:45:56;;;;;;;1.98;0.75;;;;;;;12.29;86.29;100323.19;5173010;27;20436;-63
2023/05/19 06:48:26;;;;;;;0.70;0.50;;;;;;;12.33;85.95;100321.50;5172890;27;20095;-63
2023/05/19 06:50:57;;;;;;;0.68;0.68;;;;;;;12.39;86.00;100326.63;5154634;27;20041;-63
2023/05/19 06:53:27;;;;;;;0.65;0.65;;;;;;;12.49;85.58;100323.25;5172872;27;20047;-62
2023/05/19 06:55:57;;;;;;;2.22;1.45;;;;;;;12.53;85.57;100313.00;5172509;27;20043;-62
2023/05/19 06:58:33;;;;;;;0.45;0.45;;;;;;;12.69;85.52;100317.28;5172419;27;20471;-62
2023/05/19 07:01:05;;;;;;;0.60;0.60;;;;;;;12.79;85.50;100326.69;5172400;27;20505;-62
2023/05/19 07:03:40;;;;;;;0.35;0.35;;;;;;;12.80;85.10;100330.13;5153754;27;20069;-62
2023/05/19 07:06:13;;;;;;;0.93;0.82;;;;;;;12.76;85.00;100320.72;5146117;27;20039;-62
2023/05/19 07:08:43;;;;;;;0.82;0.73;;;;;;;12.87;84.56;100336.94;5133295;27;20426;-62
2023/05/19 07:11:13;;;;;;;2.00;1.27;;;;;;;12.81;83.73;100326.72;5151732;27;20039;-62
2023/05/19 07:13:43;;;;;;;0.52;0.52;;;;;;;12.82;83.63;100332.66;5151238;27;20050;-62
2023/05/19 07:16:13;;;;;;;0.60;0.60;;;;;;;12.85;83.48;100333.53;5141787;27;20043;-62
2023/05/19 07:18:41;;;;;;;0.53;0.53;;;;;;;12.91;83.35;100328.41;5119464;27;20039;-62
2023/05/19 07:21:13;;;;;;;1.45;1.35;;;;;;;13.06;83.39;100331.00;5137430;27;20043;-63
2023/05/19 07:23:45;;;;;;;0.70;0.70;;;;;;;13.20;83.22;100334.41;5119040;27;20050;-62
2023/05/19 07:26:14;;;;;;;1.17;1.08;;;;;;;13.32;83.08;100339.53;5137212;27;20070;-62
2023/05/19 07:28:43;;;;;;;0.40;0.40;;;;;;;13.39;82.61;100325.84;5137520;27;20047;-63
2023/05/19 07:31:12;;;;;;;1.33;1.23;;;;;;;13.47;82.56;100317.28;5137415;27;20142;-62
2023/05/19 07:33:40;;;;;;;1.35;1.25;;;;;;;13.52;82.08;100318.13;5137050;27;20043;-62
2023/05/19 07:36:09;;;;;;;0.70;0.70;;;;;;;13.61;81.91;100323.22;5136945;27;20051;-63
2023/05/19 07:38:40;;;;;;;1.53;0.87;;;;;;;13.71;81.87;100309.50;5136957;27;20118;-62
2023/05/19 07:41:09;;;;;;;0.57;0.57;;;;;;;13.84;81.39;100321.44;5137076;27;20271;-62
2023/05/19 07:43:37;;;;;;;0.57;0.57;;;;;;;13.95;81.49;100319.69;5136849;27;20058;-63
2023/05/19 07:46:06;;;;;;;0.70;0.70;;;;;;;14.10;81.02;100324.75;5136781;27;20153;-63
2023/05/19 07:48:35;;;;;;;2.00;1.43;;;;;;;14.26;80.62;100326.38;5136852;27;20043;-63
2023/05/19 07:51:04;;;;;;;0.43;0.43;;;;;;;14.35;80.75;100334.06;5136960;27;20035;-63
2023/05/19 07:53:33;;;;;;;0.80;0.80;;;;;;;14.54;80.32;100322.00;5136689;27;20058;-63
2023/05/19 07:56:04;;;;;;;3.05;1.63;;;;;;;14.57;80.11;100333.06;5137024;27;20039;-63
2023/05/19 07:58:33;;;;;;;3.50;1.25;;;;;;;14.66;79.95;100322.72;5137037;27;20043;-63
2023/05/19 08:01:02;;;;;;;0.90;0.90;;;;;;;14.83;79.46;100324.34;5136848;27;20043;-63
2023/05/19 08:03:31;;;;;;;0.50;0.50;;;;;;;14.95;79.11;100324.25;5136932;27;20077;-63
2023/05/19 08:06:00;;;;;;;0.65;0.65;;;;;;;15.12;78.37;100322.38;5115808;27;20050;-64
2023/05/19 08:08:29;;;;;;;0.50;0.50;;;;;;;15.25;77.91;100317.13;5134090;27;20035;-64
2023/05/19 08:10:57;;;;;;;0.70;0.70;;;;;;;15.45;77.45;100322.09;5132486;27;20282;-63
2023/05/19 08:13:28;;;;;;;0.97;0.93;;;;;;;15.51;76.89;100311.75;5131867;27;20042;-63
2023/05/19 08:15:58;;;;;;;1.67;0.70;;;;;;;15.63;76.44;100321.91;5136293;27;20047;-64
2023/05/19 08:18:27;;;;;;;1.00;0.63;;;;;;;15.80;76.03;100314.84;5136465;27;20439;-64
2023/05/19 08:20:56;;;;;;;1.17;0.70;;;;;;;15.96;75.35;100316.34;5136193;27;20040;-64
2023/05/19 08:23:25;;;;;;;1.93;1.13;;;;;;;16.01;74.62;100313.72;5136077;27;20093;-63
2023/05/19 08:25:54;;;;;;;0.60;0.60;;;;;;;16.14;73.89;100306.69;5136180;27;20610;-63
2023/05/19 08:28:22;;;;;;;1.50;0.73;;;;;;;16.26;73.51;100301.38;5135378;27;20062;-63
2023/05/19 08:30:52;;;;;;;3.10;1.33;;;;;;;16.39;73.42;100308.03;5136008;27;20047;-63
2023/05/19 08:33:21;;;;;;;1.10;0.88;;;;;;;16.39;73.10;100310.63;5136292;27;20051;-64
2023/05/19 08:35:50;;;;;;;0.63;0.63;;;;;;;16.33;72.80;100303.00;5135874;27;20043;-63
2023/05/19 08:38:19;;;;;;;1.02;0.93;;;;;;;16.36;73.01;100306.41;5136175;27;20035;-63
2023/05/19 08:40:48;;;;;;;1.10;1.00;;;;;;;16.46;72.90;100312.28;5117133;27;20046;-63
2023/05/19 08:43:17;;;;;;;0.50;0.50;;;;;;;16.63;72.93;100311.16;5134905;27;20118;-64
2023/05/19 08:45:46;;;;;;;1.58;1.40;;;;;;;16.84;72.71;100314.28;5135570;27;20053;-64
2023/05/19 08:48:18;;;;;;;0.70;0.70;;;;;;;17.06;72.91;100311.31;5135332;27;20051;-64
2023/05/19 08:50:55;;;;;;;1.27;1.17;;;;;;;17.16;72.48;100305.13;5134572;27;20150;-64
2023/05/19 08:53:30;;;;;;;1.92;1.48;;;;;;;16.99;72.26;100307.13;5134813;27;20051;-64
2023/05/19 08:56:09;;;;;;;0.60;0.60;;;;;;;17.16;72.04;100312.88;5135821;27;20545;-64
2023/05/19 08:58:40;;;;;;;4.72;1.02;;;;;;;17.12;71.33;100306.06;5135075;27;20043;-64
2023/05/19 09:01:09;;;;;;;1.05;0.98;;;;;;;17.10;71.28;100312.13;5135269;27;20530;-64
2023/05/19 09:03:40;;;;;;;0.45;0.45;;;;;;;17.14;71.28;100309.47;5134905;27;20043;-64
2023/05/19 09:06:12;;;;;;;0.70;0.70;;;;;;;17.05;71.22;100319.94;5135092;27;20039;-64
2023/05/19 09:08:42;;;;;;;3.40;1.27;;;;;;;16.98;71.12;100312.34;5135289;27;20500;-64
2023/05/19 09:11:11;;;;;;;1.08;1.00;;;;;;;17.11;71.33;100309.50;5135079;27;20141;-64
2023/05/19 09:13:40;;;;;;;2.03;1.52;;;;;;;17.19;71.58;100306.81;5135084;27;20051;-64
2023/05/19 09:16:10;;;;;;;1.25;1.00;;;;;;;17.13;71.33;100302.59;5134993;27;20088;-64
2023/05/19 09:18:53;;;;;;;1.50;1.40;;;;;;;17.36;71.12;100310.78;5135980;27;20039;-65
2023/05/19 09:21:29;;;;;;;1.85;1.50;;;;;;;17.55;71.27;100307.91;5134998;27;20051;-63
2023/05/19 09:23:59;;;;;;;1.50;0.90;;;;;;;17.68;71.13;100296.47;5135205;27;20437;-63
2023/05/19 09:26:37;;;;;;;0.70;0.70;;;;;;;17.75;70.52;100298.03;5135051;27;20042;-64
2023/05/19 09:29:17;;;;;;;1.40;1.30;;;;;;;17.54;70.22;100307.03;5135157;27;20272;-64
2023/05/19 09:31:50;;;;;;;21.23;2.63;;;;;;;17.54;70.58;100303.63;5134888;27;20050;-64
2023/05/19 09:34:23;;;;;;;3.22;1.50;;;;;;;17.74;70.50;100296.31;5135225;27;20098;-64
2023/05/19 09:36:53;;;;;;;0.70;0.70;;;;;;;17.86;69.93;100298.66;5134717;27;20047;-64
2023/05/19 09:39:24;;;;;;;1.10;1.00;;;;;;;17.92;69.62;100294.22;5134572;27;20122;-64
2023/05/19 09:41:54;;;;;;;0.50;0.50;;;;;;;17.95;69.17;100282.97;5134980;27;20118;-64
2023/05/19 09:44:27;;;;;;;0.80;0.80;;;;;;;18.17;69.33;100286.81;5135075;27;20047;-64
2023/05/19 09:46:57;;;;;;;0.73;0.63;;;;;;;18.48;69.61;100290.44;5134602;27;20130;-64
2023/05/19 09:49:29;;;;;;;1.10;1.00;;;;;;;18.60;68.84;100286.72;5134848;27;20571;-64
2023/05/19 09:51:58;;;;;;;0.75;0.75;;;;;;;18.73;68.61;100288.97;5134645;27;20062;-64
2023/05/19 09:54:28;;;;;;;1.10;0.90;;;;;;;18.98;68.94;100283.22;5134592;27;20070;-65
2023/05/19 09:56:58;;;;;;;0.63;0.63;;;;;;;19.22;68.97;100277.38;5134583;27;20035;-65
2023/05/19 09:59:28;;;;;;;1.55;1.17;;;;;;;19.36;68.84;100275.31;5134797;27;20484;-65
2023/05/19 10:02:01;;;;;;;3.05;1.23;;;;;;;19.68;68.96;100283.03;5134836;27;20043;-64
2023/05/19 10:04:32;;;;;;;1.13;1.02;;;;;;;19.57;67.70;100272.16;5134266;28;20051;-64
2023/05/19 10:07:05;;;;;;;0.95;0.95;;;;;;;19.53;66.65;100262.75;5134327;28;20046;-64
2023/05/19 10:09:36;;;;;;;0.82;0.82;;;;;;;19.16;65.72;100264.59;5134449;28;20047;-64
2023/05/19 10:12:08;;;;;;;0.80;0.80;;;;;;;19.10;66.01;100263.03;5134393;28;20530;-65
2023/05/19 10:14:38;;;;;;;1.38;1.27;;;;;;;19.10;66.40;100264.78;5134362;28;20172;-65
2023/05/19 10:17:09;;;;;;;1.10;1.02;;;;;;;18.84;66.22;100265.44;5134686;28;20039;-65
2023/05/19 10:19:41;;;;;;;1.40;1.00;;;;;;;18.89;66.71;100261.00;5134309;28;20039;-64
2023/05/19 10:22:10;;;;;;;0.68;0.65;;;;;;;18.96;67.37;100264.25;5134216;28;20067;-64
2023/05/19 10:24:39;;;;;;;1.92;1.45;;;;;;;19.11;67.79;100256.13;5134188;28;20095;-64
2023/05/19 10:27:14;;;;;;;0.82;0.80;;;;;;;19.27;68.18;100257.41;5133019;28;20066;-64
2023/05/19 10:29:49;;;;;;;0.85;0.70;;;;;;;19.19;67.58;100251.59;5116034;28;20130;-64
2023/05/19 10:32:23;;;;;;;0.70;0.70;;;;;;;19.10;67.20;100246.66;5134246;28;20055;-64
2023/05/19 10:35:20;;;;;;;1.20;0.90;;;;;;;19.04;67.27;100247.66;5134187;28;20051;-64
2023/05/19 10:37:58;;;;;;;0.50;0.50;;;;;;;18.98;66.87;100252.16;5134465;28;20035;-64
2023/05/19 10:40:29;;;;;;;0.80;0.75;;;;;;;18.86;66.98;100242.94;5134438;28;20430;-64
2023/05/19 10:43:14;;;;;;;0.57;0.52;;;;;;;18.76;67.17;100246.69;5134456;28;20051;-64
2023/05/19 10:45:48;;;;;;;1.50;1.40;;;;;;;18.75;68.24;100239.78;5134035;28;20054;-64
2023/05/19 10:48:19;;;;;;;1.10;0.77;;;;;;;18.90;68.51;100243.72;5134059;28;20505;-64
2023/05/19 10:50:54;;;;;;;0.65;0.65;;;;;;;19.03;68.29;100243.38;5135155;27;20112;-64
2023/05/19 10:53:30;;;;;;;0.68;0.68;;;;;;;19.16;68.14;100236.13;5137975;27;20043;-64
2023/05/19 10:56:02;;;;;;;0.80;0.80;;;;;;;19.18;67.39;100234.34;5137931;27;20112;-64
2023/05/19 10:58:40;;;;;;;1.45;1.23;;;;;;;19.20;67.58;100233.41;5137759;27;20047;-64
2023/05/19 11:01:13;;;;;;;1.20;1.05;;;;;;;19.28;67.36;100240.97;5138155;27;20043;-64
2023/05/19 11:03:50;;;;;;;1.48;1.25;;;;;;;19.44;67.79;100234.53;5137429;27;20058;-64
2023/05/19 11:06:25;;;;;;;0.80;0.80;;;;;;;19.69;68.55;100232.94;5137892;27;20061;-64
2023/05/19 11:08:57;;;;;;;0.80;0.80;;;;;;;19.83;68.72;100230.78;5137471;27;20123;-64
2023/05/19 11:11:27;;;;;;;0.52;0.52;;;;;;;19.82;68.17;100229.09;5137340;27;20043;-64
2023/05/19 11:13:56;;;;;;;0.90;0.85;;;;;;;19.68;67.37;100236.41;5138125;27;20051;-65
2023/05/19 11:16:29;;;;;;;2.78;1.17;;;;;;;19.36;66.41;100233.91;5137411;27;20043;-64
2023/05/19 11:18:59;;;;;;;1.13;1.02;;;;;;;19.26;66.93;100232.41;5137889;27;20046;-64
2023/05/19 11:21:47;;;;;;;1.20;0.88;;;;;;;19.34;67.93;100238.22;5137337;27;20040;-64
2023/05/19 11:24:33;;;;;;;1.88;1.40;;;;;;;19.35;67.91;100234.75;5137640;27;20566;-64
2023/05/19 11:27:18;;;;;;;0.52;0.52;;;;;;;19.41;68.31;100237.22;5137555;27;20399;-63
2023/05/19 11:29:48;;;;;;;0.77;0.77;;;;;;;19.44;67.96;100234.53;5137241;27;20099;-64
2023/05/19 11:32:17;;;;;;;0.75;0.75;;;;;;;19.21;67.36;100223.94;5137481;27;20054;-64
2023/05/19 11:34:48;;;;;;;1.98;1.75;;;;;;;19.22;68.12;100226.47;5137424;27;20043;-64
2023/05/19 11:37:19;;;;;;;1.25;1.15;;;;;;;19.38;68.51;100221.75;5137097;27;20074;-64
2023/05/19 11:39:48;;;;;;;0.73;0.73;;;;;;;19.54;68.49;100232.53;5118624;27;20492;-64
2023/05/19 11:42:16;;;;;;;0.80;0.80;;;;;;;19.63;68.27;100229.66;5136951;27;20035;-64
2023/05/19 11:44:46;;;;;;;0.77;0.70;;;;;;;19.59;67.79;100210.78;5137586;27;20529;-63
2023/05/19 11:47:16;;;;;;;0.73;0.65;;;;;;;19.75;67.80;100227.56;5118829;27;20394;-64